sensor_id;sensor_type;location;lat;lon;timestamp;P1;durP1;ratioP1;P2;durP2;ratioP2
7045;SDS011;3564;53.326;10.356;2022-09-03T00:01:02;3.23;;;1.20;;
7045;SDS011;3564;53.326;10.356;2022-09-03T00:03:46;1.50;;;1.30;;
7045;SDS011;3564;53.326;10.356;2022-09-03T00:06:20;1.03;;;0.90;;
7045;SDS011;3564;53.326;10.356;2022-09-03T00:08:50;2.53;;;1.20;;
7045;SDS011;3564;53.326;10.356;2022-09-03T00:11:18;1.13;;;1.13;;
7045;SDS011;3564;53.326;10.356;2022-09-03T00:14:11;1.47;;;1.10;;
7045;SDS011;3564;53.326;10.356;2022-09-03T00:16:53;1.53;;;1.33;;
7045;SDS011;3564;53.326;10.356;2022-09-03T00:19:38;1.63;;;1.23;;
7045;SDS011;3564;53.326;10.356;2022-09-03T00:22:20;2.60;;;1.20;;
7045;SDS011;3564;53.326;10.356;2022-09-03T00:24:58;1.17;;;1.07;;
7045;SDS011;3564;53.326;10.356;2022-09-03T00:27:28;1.90;;;1.17;;
7045;SDS011;3564;53.326;10.356;2022-09-03T00:30:19;2.87;;;1.20;;
7045;SDS011;3564;53.326;10.356;2022-09-03T00:32:46;2.03;;;1.20;;
7045;SDS011;3564;53.326;10.356;2022-09-03T00:35:28;1.50;;;1.33;;
7045;SDS011;3564;53.326;10.356;2022-09-03T00:37:59;2.63;;;1.13;;
7045;SDS011;3564;53.326;10.356;2022-09-03T00:45:53;1.27;;;1.17;;
7045;SDS011;3564;53.326;10.356;2022-09-03T00:48:25;1.27;;;1.17;;
7045;SDS011;3564;53.326;10.356;2022-09-03T01:01:18;1.30;;;1.20;;
7045;SDS011;3564;53.326;10.356;2022-09-03T01:22:37;1.40;;;1.30;;
7045;SDS011;3564;53.326;10.356;2022-09-03T01:30:22;2.70;;;1.40;;
7045;SDS011;3564;53.326;10.356;2022-09-03T01:35:51;1.70;;;1.40;;
7045;SDS011;3564;53.326;10.356;2022-09-03T01:41:08;1.40;;;1.10;;
7045;SDS011;3564;53.326;10.356;2022-09-03T01:46:36;2.43;;;1.37;;
7045;SDS011;3564;53.326;10.356;2022-09-03T01:52:13;1.30;;;1.20;;
7045;SDS011;3564;53.326;10.356;2022-09-03T01:54:45;3.23;;;1.60;;
7045;SDS011;3564;53.326;10.356;2022-09-03T02:00:11;1.40;;;1.30;;
7045;SDS011;3564;53.326;10.356;2022-09-03T02:02:44;2.17;;;1.13;;
7045;SDS011;3564;53.326;10.356;2022-09-03T02:05:19;1.73;;;1.33;;
7045;SDS011;3564;53.326;10.356;2022-09-03T02:08:07;1.57;;;1.43;;
7045;SDS011;3564;53.326;10.356;2022-09-03T02:13:27;2.63;;;1.30;;
7045;SDS011;3564;53.326;10.356;2022-09-03T02:15:55;2.23;;;1.50;;
7045;SDS011;3564;53.326;10.356;2022-09-03T02:18:25;1.37;;;1.20;;
7045;SDS011;3564;53.326;10.356;2022-09-03T02:20:55;2.70;;;1.50;;
7045;SDS011;3564;53.326;10.356;2022-09-03T02:23:21;3.27;;;1.33;;
7045;SDS011;3564;53.326;10.356;2022-09-03T02:25:54;2.23;;;1.50;;
7045;SDS011;3564;53.326;10.356;2022-09-03T02:28:21;2.10;;;1.27;;
7045;SDS011;3564;53.326;10.356;2022-09-03T02:30:48;1.87;;;1.40;;
7045;SDS011;3564;53.326;10.356;2022-09-03T02:33:13;3.13;;;1.30;;
7045;SDS011;3564;53.326;10.356;2022-09-03T02:35:40;2.53;;;1.53;;
7045;SDS011;3564;53.326;10.356;2022-09-03T02:38:13;3.93;;;1.60;;
7045;SDS011;3564;53.326;10.356;2022-09-03T02:40:39;1.40;;;1.20;;
7045;SDS011;3564;53.326;10.356;2022-09-03T02:43:05;1.53;;;1.20;;
7045;SDS011;3564;53.326;10.356;2022-09-03T02:45:35;1.30;;;1.20;;
7045;SDS011;3564;53.326;10.356;2022-09-03T02:48:05;1.60;;;1.40;;
7045;SDS011;3564;53.326;10.356;2022-09-03T02:50:41;1.40;;;1.30;;
7045;SDS011;3564;53.326;10.356;2022-09-03T02:53:07;2.67;;;1.13;;
7045;SDS011;3564;53.326;10.356;2022-09-03T02:55:33;2.27;;;1.20;;
7045;SDS011;3564;53.326;10.356;2022-09-03T02:57:59;1.50;;;1.30;;
7045;SDS011;3564;53.326;10.356;2022-09-03T03:00:25;1.70;;;1.23;;
7045;SDS011;3564;53.326;10.356;2022-09-03T03:02:53;1.63;;;1.10;;
7045;SDS011;3564;53.326;10.356;2022-09-03T03:06:05;2.13;;;1.13;;
7045;SDS011;3564;53.326;10.356;2022-09-03T03:08:17;2.30;;;1.30;;
7045;SDS011;3564;53.326;10.356;2022-09-03T03:10:46;2.10;;;1.37;;
7045;SDS011;3564;53.326;10.356;2022-09-03T03:13:13;2.13;;;1.30;;
7045;SDS011;3564;53.326;10.356;2022-09-03T03:15:40;4.53;;;2.03;;
7045;SDS011;3564;53.326;10.356;2022-09-03T03:18:06;2.13;;;1.50;;
7045;SDS011;3564;53.326;10.356;2022-09-03T03:20:35;1.67;;;1.50;;
7045;SDS011;3564;53.326;10.356;2022-09-03T03:23:01;2.70;;;1.30;;
7045;SDS011;3564;53.326;10.356;2022-09-03T03:25:30;1.70;;;1.40;;
7045;SDS011;3564;53.326;10.356;2022-09-03T03:27:56;1.50;;;1.40;;
7045;SDS011;3564;53.326;10.356;2022-09-03T03:30:22;1.57;;;1.37;;
7045;SDS011;3564;53.326;10.356;2022-09-03T03:32:48;1.43;;;1.33;;
7045;SDS011;3564;53.326;10.356;2022-09-03T03:35:13;1.70;;;1.27;;
7045;SDS011;3564;53.326;10.356;2022-09-03T03:37:40;1.50;;;1.23;;
7045;SDS011;3564;53.326;10.356;2022-09-03T03:40:06;1.30;;;1.20;;
7045;SDS011;3564;53.326;10.356;2022-09-03T03:42:32;2.23;;;1.40;;
7045;SDS011;3564;53.326;10.356;2022-09-03T03:44:58;1.33;;;1.00;;
7045;SDS011;3564;53.326;10.356;2022-09-03T03:47:26;2.30;;;1.37;;
7045;SDS011;3564;53.326;10.356;2022-09-03T03:49:54;1.50;;;1.17;;
7045;SDS011;3564;53.326;10.356;2022-09-03T03:52:22;1.40;;;1.30;;
7045;SDS011;3564;53.326;10.356;2022-09-03T03:54:48;1.47;;;1.20;;
7045;SDS011;3564;53.326;10.356;2022-09-03T03:57:14;1.83;;;1.60;;
7045;SDS011;3564;53.326;10.356;2022-09-03T03:59:40;1.13;;;1.07;;
7045;SDS011;3564;53.326;10.356;2022-09-03T04:02:06;1.53;;;1.30;;
7045;SDS011;3564;53.326;10.356;2022-09-03T04:04:31;1.43;;;1.33;;
7045;SDS011;3564;53.326;10.356;2022-09-03T04:06:57;1.40;;;1.30;;
7045;SDS011;3564;53.326;10.356;2022-09-03T04:09:23;1.20;;;1.10;;
7045;SDS011;3564;53.326;10.356;2022-09-03T04:11:48;4.47;;;1.60;;
7045;SDS011;3564;53.326;10.356;2022-09-03T04:14:15;3.33;;;1.57;;
7045;SDS011;3564;53.326;10.356;2022-09-03T04:16:42;3.23;;;1.40;;
7045;SDS011;3564;53.326;10.356;2022-09-03T04:19:10;1.77;;;1.30;;
7045;SDS011;3564;53.326;10.356;2022-09-03T04:21:36;1.63;;;1.50;;
7045;SDS011;3564;53.326;10.356;2022-09-03T04:24:03;1.50;;;1.40;;
7045;SDS011;3564;53.326;10.356;2022-09-03T04:26:30;2.27;;;1.40;;
7045;SDS011;3564;53.326;10.356;2022-09-03T04:29:07;1.63;;;1.50;;
7045;SDS011;3564;53.326;10.356;2022-09-03T04:31:34;2.17;;;1.60;;
7045;SDS011;3564;53.326;10.356;2022-09-03T04:34:01;1.80;;;1.50;;
7045;SDS011;3564;53.326;10.356;2022-09-03T04:36:27;1.80;;;1.43;;
7045;SDS011;3564;53.326;10.356;2022-09-03T04:38:56;2.63;;;1.63;;
7045;SDS011;3564;53.326;10.356;2022-09-03T04:41:27;2.43;;;1.50;;
7045;SDS011;3564;53.326;10.356;2022-09-03T04:43:56;1.67;;;1.30;;
7045;SDS011;3564;53.326;10.356;2022-09-03T04:46:24;2.50;;;1.30;;
7045;SDS011;3564;53.326;10.356;2022-09-03T04:48:54;1.47;;;1.37;;
7045;SDS011;3564;53.326;10.356;2022-09-03T04:51:21;2.47;;;1.63;;
7045;SDS011;3564;53.326;10.356;2022-09-03T04:53:56;3.90;;;1.53;;
7045;SDS011;3564;53.326;10.356;2022-09-03T04:56:24;2.27;;;1.23;;
7045;SDS011;3564;53.326;10.356;2022-09-03T04:58:55;1.30;;;1.20;;
7045;SDS011;3564;53.326;10.356;2022-09-03T05:01:24;2.43;;;1.40;;
7045;SDS011;3564;53.326;10.356;2022-09-03T05:03:57;2.23;;;1.50;;
7045;SDS011;3564;53.326;10.356;2022-09-03T05:06:26;2.43;;;1.50;;
7045;SDS011;3564;53.326;10.356;2022-09-03T05:08:54;1.50;;;1.40;;
7045;SDS011;3564;53.326;10.356;2022-09-03T05:11:20;1.87;;;1.50;;
7045;SDS011;3564;53.326;10.356;2022-09-03T05:13:47;1.40;;;1.30;;
7045;SDS011;3564;53.326;10.356;2022-09-03T05:16:14;3.53;;;1.60;;
7045;SDS011;3564;53.326;10.356;2022-09-03T05:18:40;2.87;;;1.30;;
7045;SDS011;3564;53.326;10.356;2022-09-03T05:21:10;1.50;;;1.40;;
7045;SDS011;3564;53.326;10.356;2022-09-03T05:23:41;2.53;;;1.50;;
7045;SDS011;3564;53.326;10.356;2022-09-03T05:26:13;1.80;;;1.40;;
7045;SDS011;3564;53.326;10.356;2022-09-03T05:28:41;3.87;;;1.40;;
7045;SDS011;3564;53.326;10.356;2022-09-03T05:31:11;1.43;;;1.30;;
7045;SDS011;3564;53.326;10.356;2022-09-03T05:33:48;1.40;;;1.27;;
7045;SDS011;3564;53.326;10.356;2022-09-03T05:36:16;1.40;;;1.30;;
7045;SDS011;3564;53.326;10.356;2022-09-03T05:38:49;2.00;;;1.47;;
7045;SDS011;3564;53.326;10.356;2022-09-03T05:41:18;3.23;;;1.40;;
7045;SDS011;3564;53.326;10.356;2022-09-03T05:43:46;1.97;;;1.40;;
7045;SDS011;3564;53.326;10.356;2022-09-03T05:46:17;3.63;;;1.50;;
7045;SDS011;3564;53.326;10.356;2022-09-03T05:48:43;2.90;;;1.30;;
7045;SDS011;3564;53.326;10.356;2022-09-03T05:51:09;1.70;;;1.50;;
7045;SDS011;3564;53.326;10.356;2022-09-03T05:53:39;2.03;;;1.63;;
7045;SDS011;3564;53.326;10.356;2022-09-03T05:56:06;1.40;;;1.30;;
7045;SDS011;3564;53.326;10.356;2022-09-03T05:58:40;1.90;;;1.50;;
7045;SDS011;3564;53.326;10.356;2022-09-03T06:01:12;2.67;;;1.60;;
7045;SDS011;3564;53.326;10.356;2022-09-03T06:03:39;1.90;;;1.40;;
7045;SDS011;3564;53.326;10.356;2022-09-03T06:06:06;1.37;;;1.27;;
7045;SDS011;3564;53.326;10.356;2022-09-03T06:08:32;1.70;;;1.30;;
7045;SDS011;3564;53.326;10.356;2022-09-03T06:10:58;1.57;;;1.30;;
7045;SDS011;3564;53.326;10.356;2022-09-03T06:13:25;1.60;;;1.40;;
7045;SDS011;3564;53.326;10.356;2022-09-03T06:15:55;2.33;;;1.47;;
7045;SDS011;3564;53.326;10.356;2022-09-03T06:18:22;1.40;;;1.30;;
7045;SDS011;3564;53.326;10.356;2022-09-03T06:20:57;1.30;;;1.20;;
7045;SDS011;3564;53.326;10.356;2022-09-03T06:23:32;2.93;;;1.40;;
7045;SDS011;3564;53.326;10.356;2022-09-03T06:25:59;1.80;;;1.60;;
7045;SDS011;3564;53.326;10.356;2022-09-03T06:28:36;2.70;;;1.40;;
7045;SDS011;3564;53.326;10.356;2022-09-03T06:31:04;3.90;;;1.40;;
7045;SDS011;3564;53.326;10.356;2022-09-03T06:33:36;2.20;;;1.70;;
7045;SDS011;3564;53.326;10.356;2022-09-03T06:36:03;2.70;;;1.30;;
7045;SDS011;3564;53.326;10.356;2022-09-03T06:38:31;2.60;;;1.50;;
7045;SDS011;3564;53.326;10.356;2022-09-03T06:41:00;2.93;;;1.43;;
7045;SDS011;3564;53.326;10.356;2022-09-03T06:43:28;1.67;;;1.37;;
7045;SDS011;3564;53.326;10.356;2022-09-03T06:45:59;1.43;;;1.27;;
7045;SDS011;3564;53.326;10.356;2022-09-03T06:48:30;2.33;;;1.63;;
7045;SDS011;3564;53.326;10.356;2022-09-03T06:50:57;2.67;;;1.33;;
7045;SDS011;3564;53.326;10.356;2022-09-03T06:53:28;1.43;;;1.30;;
7045;SDS011;3564;53.326;10.356;2022-09-03T06:55:56;2.00;;;1.60;;
7045;SDS011;3564;53.326;10.356;2022-09-03T06:58:33;2.03;;;1.43;;
7045;SDS011;3564;53.326;10.356;2022-09-03T07:01:05;1.60;;;1.40;;
7045;SDS011;3564;53.326;10.356;2022-09-03T07:03:33;1.67;;;1.50;;
7045;SDS011;3564;53.326;10.356;2022-09-03T07:06:04;1.40;;;1.30;;
7045;SDS011;3564;53.326;10.356;2022-09-03T07:08:33;1.93;;;1.40;;
7045;SDS011;3564;53.326;10.356;2022-09-03T07:10:59;1.40;;;1.30;;
7045;SDS011;3564;53.326;10.356;2022-09-03T07:13:40;2.33;;;1.20;;
7045;SDS011;3564;53.326;10.356;2022-09-03T07:16:09;3.00;;;1.30;;
7045;SDS011;3564;53.326;10.356;2022-09-03T07:18:37;1.50;;;1.40;;
7045;SDS011;3564;53.326;10.356;2022-09-03T07:21:04;2.77;;;1.50;;
7045;SDS011;3564;53.326;10.356;2022-09-03T07:23:31;2.20;;;1.30;;
7045;SDS011;3564;53.326;10.356;2022-09-03T07:25:59;2.30;;;1.30;;
7045;SDS011;3564;53.326;10.356;2022-09-03T07:28:26;3.77;;;1.30;;
7045;SDS011;3564;53.326;10.356;2022-09-03T07:30:54;2.77;;;1.43;;
7045;SDS011;3564;53.326;10.356;2022-09-03T07:33:24;2.07;;;1.20;;
7045;SDS011;3564;53.326;10.356;2022-09-03T07:35:52;1.73;;;1.30;;
7045;SDS011;3564;53.326;10.356;2022-09-03T07:38:17;2.37;;;1.40;;
7045;SDS011;3564;53.326;10.356;2022-09-03T07:40:47;2.50;;;1.60;;
7045;SDS011;3564;53.326;10.356;2022-09-03T07:43:12;2.60;;;1.30;;
7045;SDS011;3564;53.326;10.356;2022-09-03T07:45:38;1.93;;;1.37;;
7045;SDS011;3564;53.326;10.356;2022-09-03T07:48:04;1.87;;;1.50;;
7045;SDS011;3564;53.326;10.356;2022-09-03T07:50:29;2.50;;;1.20;;
7045;SDS011;3564;53.326;10.356;2022-09-03T07:53:01;1.40;;;1.20;;
7045;SDS011;3564;53.326;10.356;2022-09-03T07:55:27;1.43;;;1.30;;
7045;SDS011;3564;53.326;10.356;2022-09-03T07:57:56;2.70;;;1.60;;
7045;SDS011;3564;53.326;10.356;2022-09-03T08:00:23;1.77;;;1.20;;
7045;SDS011;3564;53.326;10.356;2022-09-03T08:02:50;1.23;;;1.10;;
7045;SDS011;3564;53.326;10.356;2022-09-03T08:05:17;2.13;;;1.30;;
7045;SDS011;3564;53.326;10.356;2022-09-03T08:07:45;2.70;;;1.60;;
7045;SDS011;3564;53.326;10.356;2022-09-03T08:10:10;3.10;;;1.60;;
7045;SDS011;3564;53.326;10.356;2022-09-03T08:12:37;2.00;;;1.30;;
7045;SDS011;3564;53.326;10.356;2022-09-03T08:15:02;1.60;;;1.50;;
7045;SDS011;3564;53.326;10.356;2022-09-03T08:17:29;1.33;;;1.23;;
7045;SDS011;3564;53.326;10.356;2022-09-03T08:19:54;2.70;;;1.33;;
7045;SDS011;3564;53.326;10.356;2022-09-03T08:22:21;2.00;;;1.27;;
7045;SDS011;3564;53.326;10.356;2022-09-03T08:24:49;1.77;;;1.40;;
7045;SDS011;3564;53.326;10.356;2022-09-03T08:27:15;1.43;;;1.20;;
7045;SDS011;3564;53.326;10.356;2022-09-03T08:29:41;2.23;;;1.20;;
7045;SDS011;3564;53.326;10.356;2022-09-03T08:32:07;1.50;;;1.40;;
7045;SDS011;3564;53.326;10.356;2022-09-03T08:34:32;2.23;;;1.50;;
7045;SDS011;3564;53.326;10.356;2022-09-03T08:36:58;1.40;;;1.30;;
7045;SDS011;3564;53.326;10.356;2022-09-03T08:39:25;3.40;;;1.50;;
7045;SDS011;3564;53.326;10.356;2022-09-03T08:44:42;1.63;;;1.30;;
7045;SDS011;3564;53.326;10.356;2022-09-03T08:55:41;1.70;;;1.30;;
7045;SDS011;3564;53.326;10.356;2022-09-03T08:58:11;4.13;;;1.70;;
7045;SDS011;3564;53.326;10.356;2022-09-03T09:00:47;2.87;;;1.40;;
7045;SDS011;3564;53.326;10.356;2022-09-03T09:09:35;3.07;;;1.53;;
7045;SDS011;3564;53.326;10.356;2022-09-03T09:12:41;2.00;;;1.20;;
7045;SDS011;3564;53.326;10.356;2022-09-03T09:15:42;3.17;;;1.40;;
7045;SDS011;3564;53.326;10.356;2022-09-03T09:23:32;1.50;;;1.23;;
7045;SDS011;3564;53.326;10.356;2022-09-03T09:26:06;2.90;;;1.40;;
7045;SDS011;3564;53.326;10.356;2022-09-03T09:28:36;2.40;;;1.50;;
7045;SDS011;3564;53.326;10.356;2022-09-03T09:31:22;1.67;;;1.03;;
7045;SDS011;3564;53.326;10.356;2022-09-03T09:33:47;4.37;;;1.20;;
7045;SDS011;3564;53.326;10.356;2022-09-03T09:36:16;1.30;;;1.20;;
7045;SDS011;3564;53.326;10.356;2022-09-03T09:38:43;1.60;;;1.43;;
7045;SDS011;3564;53.326;10.356;2022-09-03T09:41:15;1.30;;;1.20;;
7045;SDS011;3564;53.326;10.356;2022-09-03T09:43:44;1.67;;;1.57;;
7045;SDS011;3564;53.326;10.356;2022-09-03T09:46:36;1.43;;;1.33;;
7045;SDS011;3564;53.326;10.356;2022-09-03T09:49:17;3.87;;;1.40;;
7045;SDS011;3564;53.326;10.356;2022-09-03T09:52:00;1.93;;;1.40;;
7045;SDS011;3564;53.326;10.356;2022-09-03T09:54:28;2.23;;;1.30;;
7045;SDS011;3564;53.326;10.356;2022-09-03T09:56:57;2.20;;;1.60;;
7045;SDS011;3564;53.326;10.356;2022-09-03T09:59:29;1.30;;;1.20;;
7045;SDS011;3564;53.326;10.356;2022-09-03T10:02:24;1.40;;;1.30;;
7045;SDS011;3564;53.326;10.356;2022-09-03T10:05:14;1.37;;;1.20;;
7045;SDS011;3564;53.326;10.356;2022-09-03T10:07:53;2.53;;;1.47;;
7045;SDS011;3564;53.326;10.356;2022-09-03T10:10:31;2.73;;;1.40;;
7045;SDS011;3564;53.326;10.356;2022-09-03T10:13:13;2.33;;;1.30;;
7045;SDS011;3564;53.326;10.356;2022-09-03T10:15:47;2.90;;;1.37;;
7045;SDS011;3564;53.326;10.356;2022-09-03T10:26:23;2.17;;;1.37;;
7045;SDS011;3564;53.326;10.356;2022-09-03T10:28:59;1.77;;;1.40;;
7045;SDS011;3564;53.326;10.356;2022-09-03T10:40:20;1.30;;;1.20;;
7045;SDS011;3564;53.326;10.356;2022-09-03T10:43:22;2.57;;;1.30;;
7045;SDS011;3564;53.326;10.356;2022-09-03T10:46:15;1.43;;;1.20;;
7045;SDS011;3564;53.326;10.356;2022-09-03T10:51:34;1.97;;;1.50;;
7045;SDS011;3564;53.326;10.356;2022-09-03T10:56:41;3.37;;;1.30;;
7045;SDS011;3564;53.326;10.356;2022-09-03T10:59:44;3.07;;;1.40;;
7045;SDS011;3564;53.326;10.356;2022-09-03T11:05:27;1.47;;;1.20;;
7045;SDS011;3564;53.326;10.356;2022-09-03T11:10:37;3.63;;;1.50;;
7045;SDS011;3564;53.326;10.356;2022-09-03T11:13:13;1.50;;;1.40;;
7045;SDS011;3564;53.326;10.356;2022-09-03T11:16:07;4.40;;;1.53;;
7045;SDS011;3564;53.326;10.356;2022-09-03T11:18:46;1.90;;;1.60;;
7045;SDS011;3564;53.326;10.356;2022-09-03T11:21:29;3.50;;;1.50;;
7045;SDS011;3564;53.326;10.356;2022-09-03T11:24:00;4.90;;;1.20;;
7045;SDS011;3564;53.326;10.356;2022-09-03T11:26:32;1.63;;;1.10;;
7045;SDS011;3564;53.326;10.356;2022-09-03T11:29:11;2.90;;;1.40;;
7045;SDS011;3564;53.326;10.356;2022-09-03T11:34:27;1.40;;;1.17;;
7045;SDS011;3564;53.326;10.356;2022-09-03T11:37:03;2.00;;;1.10;;
7045;SDS011;3564;53.326;10.356;2022-09-03T11:39:43;1.33;;;1.23;;
7045;SDS011;3564;53.326;10.356;2022-09-03T11:42:36;2.50;;;1.30;;
7045;SDS011;3564;53.326;10.356;2022-09-03T11:45:59;1.20;;;1.10;;
7045;SDS011;3564;53.326;10.356;2022-09-03T11:47:52;2.20;;;1.13;;
7045;SDS011;3564;53.326;10.356;2022-09-03T11:52:45;1.27;;;1.17;;
7045;SDS011;3564;53.326;10.356;2022-09-03T11:55:32;2.60;;;1.43;;
7045;SDS011;3564;53.326;10.356;2022-09-03T11:58:32;3.27;;;1.23;;
7045;SDS011;3564;53.326;10.356;2022-09-03T12:01:01;1.10;;;1.00;;
7045;SDS011;3564;53.326;10.356;2022-09-03T12:03:29;1.83;;;1.10;;
7045;SDS011;3564;53.326;10.356;2022-09-03T12:06:29;3.03;;;1.30;;
7045;SDS011;3564;53.326;10.356;2022-09-03T12:18:45;1.47;;;1.37;;
7045;SDS011;3564;53.326;10.356;2022-09-03T12:21:15;3.60;;;1.20;;
7045;SDS011;3564;53.326;10.356;2022-09-03T12:26:13;1.80;;;1.33;;
7045;SDS011;3564;53.326;10.356;2022-09-03T12:28:40;3.07;;;1.37;;
7045;SDS011;3564;53.326;10.356;2022-09-03T12:31:30;1.27;;;1.17;;
7045;SDS011;3564;53.326;10.356;2022-09-03T12:33:59;2.20;;;1.30;;
7045;SDS011;3564;53.326;10.356;2022-09-03T12:36:26;3.50;;;1.40;;
7045;SDS011;3564;53.326;10.356;2022-09-03T12:39:37;1.97;;;1.40;;
7045;SDS011;3564;53.326;10.356;2022-09-03T12:42:07;3.07;;;1.30;;
7045;SDS011;3564;53.326;10.356;2022-09-03T12:45:12;1.40;;;1.30;;
7045;SDS011;3564;53.326;10.356;2022-09-03T12:48:11;3.43;;;1.57;;
7045;SDS011;3564;53.326;10.356;2022-09-03T12:50:39;3.83;;;1.20;;
7045;SDS011;3564;53.326;10.356;2022-09-03T12:53:05;3.17;;;1.40;;
7045;SDS011;3564;53.326;10.356;2022-09-03T12:55:51;2.33;;;1.30;;
7045;SDS011;3564;53.326;10.356;2022-09-03T13:00:53;6.03;;;1.40;;
7045;SDS011;3564;53.326;10.356;2022-09-03T13:03:54;2.87;;;1.27;;
7045;SDS011;3564;53.326;10.356;2022-09-03T13:06:33;1.60;;;1.40;;
7045;SDS011;3564;53.326;10.356;2022-09-03T13:09:27;2.07;;;1.30;;
7045;SDS011;3564;53.326;10.356;2022-09-03T13:11:55;2.13;;;1.20;;
7045;SDS011;3564;53.326;10.356;2022-09-03T13:14:23;1.90;;;1.37;;
7045;SDS011;3564;53.326;10.356;2022-09-03T13:16:54;2.80;;;1.50;;
7045;SDS011;3564;53.326;10.356;2022-09-03T13:19:42;1.20;;;1.10;;
7045;SDS011;3564;53.326;10.356;2022-09-03T13:25:12;3.33;;;1.40;;
7045;SDS011;3564;53.326;10.356;2022-09-03T13:30:39;2.73;;;1.40;;
7045;SDS011;3564;53.326;10.356;2022-09-03T13:36:07;1.70;;;1.27;;
7045;SDS011;3564;53.326;10.356;2022-09-03T13:39:01;2.70;;;1.30;;
7045;SDS011;3564;53.326;10.356;2022-09-03T13:41:34;3.43;;;1.20;;
7045;SDS011;3564;53.326;10.356;2022-09-03T13:44:15;3.13;;;1.40;;
7045;SDS011;3564;53.326;10.356;2022-09-03T13:46:56;2.00;;;1.40;;
7045;SDS011;3564;53.326;10.356;2022-09-03T13:49:38;2.80;;;1.37;;
7045;SDS011;3564;53.326;10.356;2022-09-03T13:52:47;2.17;;;1.50;;
7045;SDS011;3564;53.326;10.356;2022-09-03T13:55:57;3.30;;;1.20;;
7045;SDS011;3564;53.326;10.356;2022-09-03T13:58:35;1.53;;;1.23;;
7045;SDS011;3564;53.326;10.356;2022-09-03T14:04:21;2.83;;;1.40;;
7045;SDS011;3564;53.326;10.356;2022-09-03T14:06:57;1.27;;;1.17;;
7045;SDS011;3564;53.326;10.356;2022-09-03T14:12:27;1.67;;;1.30;;
7045;SDS011;3564;53.326;10.356;2022-09-03T14:14:56;2.80;;;1.40;;
7045;SDS011;3564;53.326;10.356;2022-09-03T14:25:29;3.70;;;1.20;;
7045;SDS011;3564;53.326;10.356;2022-09-03T14:28:12;3.93;;;1.30;;
7045;SDS011;3564;53.326;10.356;2022-09-03T14:30:48;1.50;;;1.30;;
7045;SDS011;3564;53.326;10.356;2022-09-03T14:33:30;3.47;;;1.33;;
7045;SDS011;3564;53.326;10.356;2022-09-03T14:39:26;4.00;;;1.47;;
7045;SDS011;3564;53.326;10.356;2022-09-03T14:44:58;2.37;;;1.30;;
7045;SDS011;3564;53.326;10.356;2022-09-03T14:47:48;1.30;;;1.20;;
7045;SDS011;3564;53.326;10.356;2022-09-03T14:53:25;3.73;;;1.50;;
7045;SDS011;3564;53.326;10.356;2022-09-03T14:56:08;1.60;;;1.50;;
7045;SDS011;3564;53.326;10.356;2022-09-03T15:01:42;8.02;;;1.45;;
7045;SDS011;3564;53.326;10.356;2022-09-03T15:07:07;3.05;;;1.20;;
7045;SDS011;3564;53.326;10.356;2022-09-03T15:09:46;4.22;;;1.30;;
7045;SDS011;3564;53.326;10.356;2022-09-03T15:12:45;2.10;;;1.10;;
7045;SDS011;3564;53.326;10.356;2022-09-03T15:15:33;3.53;;;1.30;;
7045;SDS011;3564;53.326;10.356;2022-09-03T15:20:48;7.95;;;1.50;;
7045;SDS011;3564;53.326;10.356;2022-09-03T15:40:02;4.00;;;1.38;;
7045;SDS011;3564;53.326;10.356;2022-09-03T15:42:54;3.33;;;1.35;;
7045;SDS011;3564;53.326;10.356;2022-09-03T15:45:48;1.02;;;1.00;;
7045;SDS011;3564;53.326;10.356;2022-09-03T15:48:36;3.50;;;1.58;;
7045;SDS011;3564;53.326;10.356;2022-09-03T15:51:27;4.90;;;3.35;;
7045;SDS011;3564;53.326;10.356;2022-09-03T15:56:33;2.38;;;1.38;;
7045;SDS011;3564;53.326;10.356;2022-09-03T15:59:14;2.35;;;1.30;;
7045;SDS011;3564;53.326;10.356;2022-09-03T16:02:08;1.60;;;1.30;;
7045;SDS011;3564;53.326;10.356;2022-09-03T16:15:44;2.85;;;1.50;;
7045;SDS011;3564;53.326;10.356;2022-09-03T16:18:33;1.33;;;1.20;;
7045;SDS011;3564;53.326;10.356;2022-09-03T16:24:12;1.40;;;1.20;;
7045;SDS011;3564;53.326;10.356;2022-09-03T16:29:24;4.70;;;1.50;;
7045;SDS011;3564;53.326;10.356;2022-09-03T16:53:27;3.60;;;1.52;;
7045;SDS011;3564;53.326;10.356;2022-09-03T16:59:23;1.75;;;1.52;;
7045;SDS011;3564;53.326;10.356;2022-09-03T17:02:09;4.25;;;1.77;;
7045;SDS011;3564;53.326;10.356;2022-09-03T17:10:27;2.72;;;1.48;;
7045;SDS011;3564;53.326;10.356;2022-09-03T17:24:22;2.65;;;1.83;;
7045;SDS011;3564;53.326;10.356;2022-09-03T17:30:06;7.10;;;2.08;;
7045;SDS011;3564;53.326;10.356;2022-09-03T17:38:30;3.17;;;1.37;;
7045;SDS011;3564;53.326;10.356;2022-09-03T17:50:24;2.70;;;1.50;;
7045;SDS011;3564;53.326;10.356;2022-09-03T17:55:31;1.43;;;1.33;;
7045;SDS011;3564;53.326;10.356;2022-09-03T18:03:44;3.13;;;1.50;;
7045;SDS011;3564;53.326;10.356;2022-09-03T18:09:04;2.83;;;1.60;;
7045;SDS011;3564;53.326;10.356;2022-09-03T18:11:47;2.93;;;2.00;;
7045;SDS011;3564;53.326;10.356;2022-09-03T18:20:02;6.27;;;3.10;;
7045;SDS011;3564;53.326;10.356;2022-09-03T18:23:01;2.93;;;2.00;;
7045;SDS011;3564;53.326;10.356;2022-09-03T18:26:08;3.73;;;1.90;;
7045;SDS011;3564;53.326;10.356;2022-09-03T18:29:02;2.10;;;2.00;;
7045;SDS011;3564;53.326;10.356;2022-09-03T18:31:52;2.97;;;2.67;;
7045;SDS011;3564;53.326;10.356;2022-09-03T18:34:36;4.87;;;3.30;;
7045;SDS011;3564;53.326;10.356;2022-09-03T18:37:22;4.67;;;4.27;;
7045;SDS011;3564;53.326;10.356;2022-09-03T18:40:10;6.23;;;4.33;;
7045;SDS011;3564;53.326;10.356;2022-09-03T18:49:30;6.63;;;5.03;;
7045;SDS011;3564;53.326;10.356;2022-09-03T18:55:36;4.37;;;3.80;;
7045;SDS011;3564;53.326;10.356;2022-09-03T19:01:37;6.33;;;4.70;;
7045;SDS011;3564;53.326;10.356;2022-09-03T19:07:23;3.57;;;2.70;;
7045;SDS011;3564;53.326;10.356;2022-09-03T19:10:25;2.50;;;2.30;;
7045;SDS011;3564;53.326;10.356;2022-09-03T19:16:59;4.67;;;2.43;;
7045;SDS011;3564;53.326;10.356;2022-09-03T19:22:57;3.87;;;3.47;;
7045;SDS011;3564;53.326;10.356;2022-09-03T19:25:41;5.93;;;3.93;;
7045;SDS011;3564;53.326;10.356;2022-09-03T19:28:27;6.53;;;3.30;;
7045;SDS011;3564;53.326;10.356;2022-09-03T19:40:49;2.50;;;2.23;;
7045;SDS011;3564;53.326;10.356;2022-09-03T19:46:57;5.90;;;2.50;;
7045;SDS011;3564;53.326;10.356;2022-09-03T19:52:54;2.97;;;2.50;;
7045;SDS011;3564;53.326;10.356;2022-09-03T19:55:43;3.50;;;2.87;;
7045;SDS011;3564;53.326;10.356;2022-09-03T19:58:35;4.63;;;3.27;;
7045;SDS011;3564;53.326;10.356;2022-09-03T20:01:24;4.53;;;2.83;;
7045;SDS011;3564;53.326;10.356;2022-09-03T20:04:15;4.07;;;3.13;;
7045;SDS011;3564;53.326;10.356;2022-09-03T20:07:00;5.60;;;4.20;;
7045;SDS011;3564;53.326;10.356;2022-09-03T20:09:47;6.43;;;3.80;;
7045;SDS011;3564;53.326;10.356;2022-09-03T20:12:34;4.07;;;2.83;;
7045;SDS011;3564;53.326;10.356;2022-09-03T20:15:04;3.40;;;3.10;;
7045;SDS011;3564;53.326;10.356;2022-09-03T20:20:09;2.43;;;2.20;;
7045;SDS011;3564;53.326;10.356;2022-09-03T20:36:12;2.73;;;1.90;;
7045;SDS011;3564;53.326;10.356;2022-09-03T20:41:57;5.87;;;3.30;;
7045;SDS011;3564;53.326;10.356;2022-09-03T20:50:43;6.53;;;3.67;;
7045;SDS011;3564;53.326;10.356;2022-09-03T20:53:24;4.60;;;2.80;;
7045;SDS011;3564;53.326;10.356;2022-09-03T20:56:10;3.00;;;2.10;;
7045;SDS011;3564;53.326;10.356;2022-09-03T20:59:04;3.67;;;2.77;;
7045;SDS011;3564;53.326;10.356;2022-09-03T21:01:57;7.80;;;6.13;;
7045;SDS011;3564;53.326;10.356;2022-09-03T21:07:55;8.67;;;5.77;;
7045;SDS011;3564;53.326;10.356;2022-09-03T21:13:30;3.93;;;2.10;;
7045;SDS011;3564;53.326;10.356;2022-09-03T21:16:16;2.60;;;1.60;;
7045;SDS011;3564;53.326;10.356;2022-09-03T21:21:48;3.87;;;1.90;;
7045;SDS011;3564;53.326;10.356;2022-09-03T21:24:23;2.17;;;1.60;;
7045;SDS011;3564;53.326;10.356;2022-09-03T21:27:03;1.80;;;1.60;;
7045;SDS011;3564;53.326;10.356;2022-09-03T21:29:37;3.53;;;1.73;;
7045;SDS011;3564;53.326;10.356;2022-09-03T21:37:22;1.93;;;1.70;;
7045;SDS011;3564;53.326;10.356;2022-09-03T21:39:55;2.47;;;1.80;;
7045;SDS011;3564;53.326;10.356;2022-09-03T21:47:56;3.63;;;1.70;;
7045;SDS011;3564;53.326;10.356;2022-09-03T21:55:54;2.77;;;1.37;;
7045;SDS011;3564;53.326;10.356;2022-09-03T22:04:33;1.60;;;1.30;;